createdAt,value
2018-10-07T00:02:02.104Z,20.35
2018-10-07T00:04:29.925Z,19.77
2018-10-07T00:06:58.060Z,17.92
2018-10-07T00:09:26.045Z,19.80
2018-10-07T00:11:54.004Z,19.15
2018-10-07T00:14:21.792Z,19.82
2018-10-07T00:16:49.583Z,17.35
2018-10-07T00:19:17.385Z,19.15
2018-10-07T00:21:46.016Z,18.98
2018-10-07T00:24:14.220Z,18.02
2018-10-07T00:26:42.236Z,18.27
2018-10-07T00:29:10.241Z,18.82
2018-10-07T00:31:43.575Z,17.95
2018-10-07T00:34:11.312Z,18.32
2018-10-07T00:36:39.585Z,16.50
2018-10-07T00:39:08.172Z,16.80
2018-10-07T00:41:36.114Z,17.57
2018-10-07T00:44:04.456Z,16.90
2018-10-07T00:46:32.689Z,17.48
2018-10-07T00:49:00.736Z,18.87
2018-10-07T00:51:28.499Z,19.37
2018-10-07T00:53:56.485Z,17.85
2018-10-07T00:56:25.138Z,18.55
2018-10-07T00:58:53.030Z,18.23
2018-10-07T01:01:21.045Z,19.15
2018-10-07T01:03:49.197Z,17.75
2018-10-07T01:06:17.256Z,19.10
2018-10-07T01:08:45.219Z,18.10
2018-10-07T01:11:13.364Z,20.12
2018-10-07T01:13:41.824Z,20.85
2018-10-07T01:16:13.236Z,20.12
2018-10-07T01:18:41.012Z,23.02
2018-10-07T01:21:09.266Z,21.75
2018-10-07T01:23:37.286Z,22.65
2018-10-07T01:26:05.814Z,20.00
2018-10-07T01:28:33.997Z,23.12
2018-10-07T01:31:02.041Z,22.30
2018-10-07T01:33:29.807Z,22.50
2018-10-07T01:35:57.955Z,21.23
2018-10-07T01:38:25.969Z,22.58
2018-10-07T01:40:54.452Z,22.37
2018-10-07T01:43:22.420Z,23.00
2018-10-07T01:45:50.483Z,21.60
2018-10-07T01:48:18.840Z,21.48
2018-10-07T01:50:46.836Z,23.62
2018-10-07T01:53:14.848Z,24.00
2018-10-07T01:55:42.848Z,22.77
2018-10-07T01:58:10.821Z,24.25
2018-10-07T02:00:39.190Z,22.93
2018-10-07T02:03:07.177Z,23.10
2018-10-07T02:05:36.365Z,21.90
2018-10-07T02:08:04.364Z,23.20
2018-10-07T02:10:32.689Z,22.30
2018-10-07T02:13:00.675Z,22.98
2018-10-07T02:15:28.831Z,22.70
2018-10-07T02:17:56.816Z,24.05
2018-10-07T02:20:24.998Z,22.02
2018-10-07T02:22:53.109Z,22.98
2018-10-07T02:25:21.154Z,23.18
2018-10-07T02:27:49.215Z,23.10
2018-10-07T02:30:16.967Z,24.15
2018-10-07T02:32:44.980Z,22.90
2018-10-07T02:35:12.972Z,24.55
2018-10-07T02:37:40.751Z,23.62
2018-10-07T02:40:09.288Z,23.80
2018-10-07T02:42:37.260Z,25.40
2018-10-07T02:45:05.255Z,24.47
2018-10-07T02:47:33.785Z,24.43
2018-10-07T02:50:05.987Z,22.50
2018-10-07T02:52:39.560Z,24.90
2018-10-07T02:55:07.604Z,24.50
2018-10-07T02:57:35.747Z,25.92
2018-10-07T03:00:03.525Z,22.58
2018-10-07T03:02:31.536Z,23.38
2018-10-07T03:04:59.797Z,23.62
2018-10-07T03:07:27.801Z,23.32
2018-10-07T03:09:56.160Z,25.02
2018-10-07T03:12:24.140Z,25.62
2018-10-07T03:14:52.170Z,24.50
2018-10-07T03:17:20.756Z,25.10
2018-10-07T03:19:48.840Z,25.15
2018-10-07T03:22:16.836Z,26.30
2018-10-07T03:24:44.789Z,26.80
2018-10-07T03:27:12.782Z,25.55
2018-10-07T03:29:40.785Z,27.40
2018-10-07T03:32:09.091Z,27.22
2018-10-07T03:34:37.084Z,26.12
2018-10-07T03:37:05.661Z,26.68
2018-10-07T03:39:33.656Z,26.77
2018-10-07T03:42:02.042Z,29.10
2018-10-07T03:44:30.574Z,27.25
2018-10-07T03:46:58.528Z,26.30
2018-10-07T03:49:26.339Z,26.62
2018-10-07T03:51:54.511Z,25.90
2018-10-07T03:54:22.497Z,25.65
2018-10-07T03:56:50.500Z,25.85
2018-10-07T03:59:18.471Z,27.15
2018-10-07T04:01:46.659Z,27.25
2018-10-07T04:04:14.427Z,26.52
2018-10-07T04:06:42.641Z,27.95
2018-10-07T04:09:11.574Z,26.17
2018-10-07T04:11:40.140Z,27.95
2018-10-07T04:14:08.927Z,28.30
2018-10-07T04:16:37.073Z,29.48
2018-10-07T04:19:05.280Z,28.45
2018-10-07T04:21:33.463Z,30.77
2018-10-07T04:24:02.347Z,28.50
2018-10-07T04:26:30.869Z,28.62
2018-10-07T04:28:59.139Z,27.50
2018-10-07T04:31:26.908Z,29.00
2018-10-07T04:33:55.001Z,30.60
2018-10-07T04:36:22.838Z,28.75
2018-10-07T04:38:50.795Z,29.10
2018-10-07T04:41:18.779Z,27.45
2018-10-07T04:43:46.953Z,29.80
2018-10-07T04:46:15.012Z,29.80
2018-10-07T04:48:42.971Z,30.23
2018-10-07T04:51:10.984Z,30.12
2018-10-07T04:53:39.268Z,31.70
2018-10-07T04:56:07.228Z,30.10
2018-10-07T04:58:34.999Z,30.10
2018-10-07T05:01:03.232Z,28.80
2018-10-07T05:03:31.194Z,30.80
2018-10-07T05:05:59.159Z,30.62
2018-10-07T05:08:28.232Z,29.10
2018-10-07T05:10:58.280Z,30.65
2018-10-07T05:13:43.417Z,29.37
2018-10-07T05:16:14.566Z,30.77
2018-10-07T05:18:43.270Z,30.30
2018-10-07T05:21:11.269Z,27.87
2018-10-07T05:23:39.261Z,29.20
2018-10-07T05:26:07.297Z,30.52
2018-10-07T05:28:35.063Z,29.95
2018-10-07T05:31:03.057Z,27.90
2018-10-07T05:33:31.189Z,29.67
2018-10-07T05:35:59.349Z,29.00
2018-10-07T05:38:27.341Z,27.15
2018-10-07T05:40:55.627Z,25.68
2018-10-07T05:43:23.618Z,24.55
2018-10-07T05:45:52.023Z,24.43
2018-10-07T05:48:20.041Z,21.23
2018-10-07T05:50:47.952Z,20.37
2018-10-07T05:53:15.929Z,21.97
2018-10-07T05:55:44.159Z,22.20
2018-10-07T05:58:12.061Z,24.40
2018-10-07T06:00:40.240Z,23.60
2018-10-07T06:03:21.765Z,20.88
2018-10-07T06:05:51.147Z,21.33
2018-10-07T06:08:19.784Z,20.97
2018-10-07T06:10:47.842Z,21.57
2018-10-07T06:13:15.957Z,23.45
2018-10-07T06:15:44.224Z,24.15
2018-10-07T06:18:12.417Z,23.38
2018-10-07T06:20:40.627Z,22.87
2018-10-07T06:23:08.751Z,22.50
2018-10-07T06:25:37.030Z,23.18
2018-10-07T06:28:04.823Z,23.00
2018-10-07T06:30:32.606Z,22.70
2018-10-07T06:33:00.762Z,21.90
2018-10-07T06:35:28.788Z,21.90
2018-10-07T06:37:56.798Z,20.60
2018-10-07T06:40:25.861Z,20.70
2018-10-07T06:42:53.695Z,21.87
2018-10-07T06:45:21.697Z,19.47
2018-10-07T06:47:49.732Z,21.00
2018-10-07T06:50:17.947Z,20.77
2018-10-07T06:52:46.065Z,20.07
2018-10-07T06:55:14.071Z,20.97
2018-10-07T06:57:42.256Z,20.40
2018-10-07T07:00:10.267Z,21.13
2018-10-07T07:02:38.319Z,22.37
2018-10-07T07:05:06.671Z,22.50
2018-10-07T07:07:34.684Z,23.70
2018-10-07T07:10:02.707Z,21.77
2018-10-07T07:12:31.152Z,22.03
2018-10-07T07:14:59.203Z,21.67
2018-10-07T07:17:27.205Z,22.77
2018-10-07T07:19:55.248Z,22.13
2018-10-07T07:22:23.449Z,22.17
2018-10-07T07:24:51.419Z,22.37
2018-10-07T07:27:19.419Z,22.77
2018-10-07T07:29:47.584Z,22.60
2018-10-07T07:32:15.604Z,22.33
2018-10-07T07:34:43.358Z,21.93
2018-10-07T07:37:11.333Z,21.53
2018-10-07T07:39:39.318Z,21.27
2018-10-07T07:42:07.305Z,23.77
2018-10-07T07:44:35.272Z,20.67
2018-10-07T07:47:03.337Z,22.03
2018-10-07T07:49:31.719Z,20.17
2018-10-07T07:51:59.949Z,20.10
2018-10-07T07:54:27.980Z,21.03
2018-10-07T07:56:55.764Z,21.70
2018-10-07T07:59:24.607Z,20.67
2018-10-07T08:01:53.470Z,18.10
2018-10-07T08:04:21.501Z,16.97
2018-10-07T08:06:49.553Z,17.57
2018-10-07T08:09:17.567Z,17.07
2018-10-07T08:11:45.768Z,17.47
2018-10-07T08:14:13.773Z,19.23
2018-10-07T08:16:41.550Z,18.70
2018-10-07T08:19:09.347Z,19.40
2018-10-07T08:21:37.343Z,19.70
2018-10-07T08:24:05.683Z,17.83
2018-10-07T08:26:33.652Z,17.23
2018-10-07T08:29:01.621Z,19.00
2018-10-07T08:31:29.376Z,18.70
2018-10-07T08:33:57.497Z,18.20
2018-10-07T08:36:25.467Z,19.47
2018-10-07T08:38:53.473Z,17.93
2018-10-07T08:41:21.346Z,18.27
2018-10-07T08:43:49.085Z,16.00
2018-10-07T08:46:17.039Z,17.00
2018-10-07T08:48:44.787Z,16.70
2018-10-07T08:51:12.772Z,15.60
2018-10-07T08:53:40.808Z,16.07
2018-10-07T08:56:09.177Z,16.60
2018-10-07T08:58:37.240Z,16.07
2018-10-07T09:01:05.460Z,14.90
2018-10-07T09:03:34.419Z,15.97
2018-10-07T09:06:02.471Z,18.13
2018-10-07T09:08:30.872Z,15.13
2018-10-07T09:10:58.885Z,16.43
2018-10-07T09:13:26.893Z,17.03
2018-10-07T09:15:54.867Z,17.10
2018-10-07T09:18:22.823Z,17.77
2018-10-07T09:20:50.783Z,16.27
2018-10-07T09:23:18.860Z,14.93
2018-10-07T09:25:46.595Z,15.70
2018-10-07T09:28:15.072Z,14.80
2018-10-07T09:30:43.129Z,13.80
2018-10-07T09:33:11.083Z,15.10
2018-10-07T09:35:39.079Z,14.60
2018-10-07T09:38:07.976Z,15.67
2018-10-07T09:40:36.104Z,14.17
2018-10-07T09:43:04.090Z,14.87
2018-10-07T09:45:32.142Z,15.80
2018-10-07T09:48:00.847Z,15.70
2018-10-07T09:50:28.597Z,15.47
2018-10-07T09:52:56.729Z,15.27
2018-10-07T09:55:24.682Z,13.87
2018-10-07T09:57:52.725Z,16.13
2018-10-07T10:00:26.622Z,13.60
2018-10-07T10:02:54.868Z,14.60
2018-10-07T10:05:22.824Z,15.80
2018-10-07T10:07:50.954Z,16.00
2018-10-07T10:10:18.715Z,16.30
2018-10-07T10:12:46.463Z,14.33
2018-10-07T10:15:14.488Z,13.77
2018-10-07T10:17:43.272Z,13.17
2018-10-07T10:20:11.970Z,13.83
2018-10-07T10:23:16.965Z,14.07
2018-10-07T10:29:04.273Z,15.03
2018-10-07T10:33:54.631Z,12.60
2018-10-07T10:36:42.139Z,13.50
2018-10-07T10:40:19.825Z,11.93
2018-10-07T10:42:52.359Z,12.60
2018-10-07T10:45:25.995Z,12.03
2018-10-07T10:47:56.224Z,10.90
2018-10-07T10:50:37.656Z,12.17
2018-10-07T10:53:35.445Z,12.37
2018-10-07T10:56:14.081Z,12.77
2018-10-07T10:59:22.168Z,12.10
2018-10-07T11:03:07.011Z,11.67
2018-10-07T11:05:42.553Z,10.47
2018-10-07T11:08:29.396Z,9.93
2018-10-07T11:11:03.411Z,11.10
2018-10-07T11:13:35.460Z,10.30
2018-10-07T11:18:10.395Z,10.07
2018-10-07T11:22:51.316Z,11.60
2018-10-07T11:25:20.903Z,10.60
2018-10-07T11:28:55.976Z,9.70
2018-10-07T11:31:32.397Z,10.43
2018-10-07T11:34:12.164Z,10.40
2018-10-07T11:38:52.633Z,10.33
2018-10-07T11:41:30.044Z,9.17
2018-10-07T11:44:06.186Z,10.80
2018-10-07T11:46:53.834Z,9.23
2018-10-07T11:49:27.409Z,8.40
2018-10-07T11:52:05.129Z,9.83
2018-10-07T11:55:05.968Z,10.10
2018-10-07T11:57:34.360Z,10.00
2018-10-07T12:00:02.856Z,8.93
2018-10-07T12:02:31.099Z,8.27
2018-10-07T12:04:59.567Z,7.20
2018-10-07T12:07:29.506Z,8.00
2018-10-07T12:10:00.392Z,7.70
2018-10-07T12:12:29.072Z,7.20
2018-10-07T12:14:57.463Z,8.33
2018-10-07T12:17:26.233Z,7.97
2018-10-07T12:19:54.923Z,7.47
2018-10-07T12:22:23.398Z,6.80
2018-10-07T12:24:51.973Z,7.60
2018-10-07T12:27:21.391Z,7.50
2018-10-07T12:29:49.920Z,6.67
2018-10-07T12:32:18.190Z,7.77
2018-10-07T12:34:46.832Z,7.67
2018-10-07T12:37:15.453Z,7.10
2018-10-07T12:39:44.181Z,6.47
2018-10-07T12:42:12.743Z,6.90
2018-10-07T12:44:41.610Z,7.17
2018-10-07T12:47:10.012Z,6.60
2018-10-07T12:49:38.382Z,7.53
2018-10-07T12:52:07.266Z,7.00
2018-10-07T12:54:36.083Z,6.87
2018-10-07T12:57:04.815Z,6.67
2018-10-07T12:59:33.217Z,6.50
2018-10-07T13:02:01.600Z,7.10
2018-10-07T13:04:29.976Z,5.90
2018-10-07T13:06:58.148Z,6.27
2018-10-07T13:09:27.395Z,6.77
2018-10-07T13:11:55.833Z,7.10
2018-10-07T13:14:24.293Z,7.33
2018-10-07T13:16:52.665Z,6.90
2018-10-07T13:19:21.093Z,6.20
2018-10-07T13:21:49.814Z,6.50
2018-10-07T13:24:18.998Z,7.33
2018-10-07T13:26:48.381Z,6.83
2018-10-07T13:29:16.964Z,7.30
2018-10-07T13:31:45.462Z,5.63
2018-10-07T13:34:14.974Z,7.43
2018-10-07T13:36:43.824Z,7.33
2018-10-07T13:39:12.995Z,6.47
2018-10-07T13:41:41.839Z,6.60
2018-10-07T13:44:11.600Z,7.10
2018-10-07T13:46:40.405Z,6.37
2018-10-07T13:49:09.320Z,6.47
2018-10-07T13:51:37.757Z,5.90
2018-10-07T13:54:07.204Z,6.83
2018-10-07T13:56:35.720Z,6.17
2018-10-07T13:59:04.645Z,6.73
2018-10-07T14:01:33.937Z,7.00
2018-10-07T14:04:02.573Z,6.47
2018-10-07T14:06:31.301Z,6.57
2018-10-07T14:08:59.972Z,6.43
2018-10-07T14:11:28.557Z,7.90
2018-10-07T14:13:57.303Z,7.27
2018-10-07T14:16:26.054Z,7.70
2018-10-07T14:18:54.739Z,7.10
2018-10-07T14:21:24.332Z,6.40
2018-10-07T14:23:53.404Z,7.13
2018-10-07T14:26:22.641Z,7.13
2018-10-07T14:28:51.364Z,6.20
2018-10-07T14:31:19.880Z,7.57
2018-10-07T14:33:48.852Z,6.67
2018-10-07T14:36:17.899Z,6.60
2018-10-07T14:38:47.098Z,6.97
2018-10-07T14:41:16.167Z,7.03
2018-10-07T14:43:44.977Z,7.40
2018-10-07T14:46:14.328Z,7.83
2018-10-07T14:48:43.221Z,7.10
2018-10-07T14:51:12.028Z,6.47
2018-10-07T14:53:40.857Z,7.90
2018-10-07T14:56:11.786Z,7.40
2018-10-07T15:00:06.175Z,7.47
2018-10-07T15:02:35.821Z,6.80
2018-10-07T15:05:05.091Z,6.80
2018-10-07T15:07:34.500Z,7.07
2018-10-07T15:10:03.827Z,7.20
2018-10-07T15:12:32.886Z,7.07
2018-10-07T15:15:01.611Z,7.13
2018-10-07T15:17:30.337Z,17.10
2018-10-07T15:19:59.042Z,7.67
2018-10-07T15:22:28.869Z,6.23
2018-10-07T15:24:58.086Z,7.73
2018-10-07T15:27:26.795Z,7.90
2018-10-07T15:29:56.111Z,8.80
2018-10-07T15:32:24.949Z,12.23
2018-10-07T15:34:53.553Z,7.83
2018-10-07T15:37:22.669Z,7.40
2018-10-07T15:39:51.383Z,8.37
2018-10-07T15:42:20.593Z,9.10
2018-10-07T15:44:49.524Z,8.33
2018-10-07T15:47:21.288Z,8.40
2018-10-07T15:49:50.915Z,9.50
2018-10-07T15:52:19.510Z,10.30
2018-10-07T15:54:48.935Z,9.67
2018-10-07T15:57:18.256Z,8.83
2018-10-07T15:59:47.386Z,9.17
2018-10-07T16:02:16.849Z,9.50
2018-10-07T16:04:45.826Z,10.10
2018-10-07T16:07:14.925Z,9.13
2018-10-07T16:09:43.715Z,10.17
2018-10-07T16:12:13.544Z,11.43
2018-10-07T16:14:44.049Z,10.90
2018-10-07T16:17:13.929Z,10.43
2018-10-07T16:19:42.938Z,9.10
2018-10-07T16:22:13.131Z,10.07
2018-10-07T16:24:42.657Z,9.77
2018-10-07T16:27:12.232Z,13.30
2018-10-07T16:29:42.222Z,11.63
2018-10-07T16:32:10.931Z,11.73
2018-10-07T16:34:39.695Z,12.40
2018-10-07T16:37:08.602Z,13.53
2018-10-07T16:39:37.327Z,12.20
2018-10-07T16:42:06.858Z,12.33
2018-10-07T16:44:36.088Z,12.55
2018-10-07T16:47:06.105Z,13.00
2018-10-07T16:49:34.863Z,13.35
2018-10-07T16:52:03.973Z,16.75
2018-10-07T16:54:33.184Z,17.62
2018-10-07T16:57:03.106Z,16.97
2018-10-07T16:59:33.409Z,15.95
2018-10-07T17:02:02.516Z,15.05
2018-10-07T17:04:31.554Z,14.85
2018-10-07T17:07:00.669Z,15.10
2018-10-07T17:09:30.443Z,14.00
2018-10-07T17:11:59.567Z,12.85
2018-10-07T17:14:28.821Z,14.30
2018-10-07T17:16:58.285Z,14.18
2018-10-07T17:19:28.056Z,14.20
2018-10-07T17:21:57.544Z,15.30
2018-10-07T17:24:26.680Z,16.20
2018-10-07T17:26:55.566Z,15.75
2018-10-07T17:29:25.532Z,15.72
2018-10-07T17:31:56.000Z,14.35
2018-10-07T17:34:24.840Z,14.18
2018-10-07T17:36:55.246Z,13.32
2018-10-07T17:39:24.868Z,13.03
2018-10-07T17:41:53.865Z,13.30
2018-10-07T17:44:23.347Z,12.18
2018-10-07T17:46:52.138Z,11.40
2018-10-07T17:49:21.006Z,11.68
2018-10-07T17:51:49.892Z,11.53
2018-10-07T17:54:19.435Z,11.45
2018-10-07T17:56:48.491Z,12.15
2018-10-07T17:59:17.397Z,12.82
2018-10-07T18:01:45.996Z,11.03
2018-10-07T18:04:17.429Z,11.80
2018-10-07T18:06:47.294Z,12.68
2018-10-07T18:09:16.689Z,10.48
2018-10-07T18:11:45.687Z,11.88
2018-10-07T18:14:16.242Z,11.10
2018-10-07T18:16:45.203Z,11.80
2018-10-07T18:19:14.705Z,12.75
2018-10-07T18:21:47.033Z,11.80
2018-10-07T18:24:16.369Z,12.15
2018-10-07T18:26:46.155Z,12.10
2018-10-07T18:29:15.201Z,11.60
2018-10-07T18:31:44.431Z,10.98
2018-10-07T18:34:14.850Z,12.03
2018-10-07T18:36:43.820Z,12.45
2018-10-07T18:39:12.606Z,11.05
2018-10-07T18:41:42.539Z,13.15
2018-10-07T18:44:12.038Z,12.70
2018-10-07T18:46:41.206Z,11.85
2018-10-07T18:49:10.135Z,12.00
2018-10-07T18:51:39.004Z,12.33
2018-10-07T18:54:09.016Z,12.10
2018-10-07T18:56:37.941Z,13.10
2018-10-07T18:59:07.961Z,13.05
2018-10-07T19:01:36.695Z,12.03
2018-10-07T19:04:05.393Z,12.40
2018-10-07T19:06:34.237Z,11.80
2018-10-07T19:09:03.235Z,11.33
2018-10-07T19:11:32.031Z,11.78
2018-10-07T19:14:00.618Z,12.95
2018-10-07T19:16:29.133Z,12.63
2018-10-07T19:18:57.644Z,13.35
2018-10-07T19:21:26.403Z,12.70
2018-10-07T19:23:55.039Z,13.08
2018-10-07T19:26:23.299Z,13.90
2018-10-07T19:28:51.804Z,13.28
2018-10-07T19:31:20.757Z,13.25
2018-10-07T19:33:49.420Z,11.45
2018-10-07T19:36:18.137Z,12.58
2018-10-07T19:38:47.493Z,13.00
2018-10-07T19:41:16.351Z,12.93
2018-10-07T19:43:44.672Z,13.15
2018-10-07T19:46:13.048Z,12.50
2018-10-07T19:48:41.780Z,11.75
2018-10-07T19:51:10.447Z,11.95
2018-10-07T19:53:39.243Z,13.10
2018-10-07T19:56:07.488Z,11.95
2018-10-07T19:58:36.040Z,12.33
2018-10-07T20:01:04.662Z,12.63
2018-10-07T20:03:32.817Z,12.28
2018-10-07T20:06:01.058Z,13.45
2018-10-07T20:08:30.604Z,12.07
2018-10-07T20:10:59.096Z,12.50
2018-10-07T20:13:27.883Z,12.63
2018-10-07T20:15:56.546Z,13.03
2018-10-07T20:18:25.136Z,13.98
2018-10-07T20:20:53.332Z,13.72
2018-10-07T20:23:21.920Z,13.72
2018-10-07T20:25:50.581Z,13.62
2018-10-07T20:28:19.329Z,13.98
2018-10-07T20:30:47.893Z,13.83
2018-10-07T20:33:16.379Z,14.85
2018-10-07T20:35:44.739Z,13.25
2018-10-07T20:38:13.423Z,13.65
2018-10-07T20:40:42.101Z,14.13
2018-10-07T20:43:10.758Z,14.95
2018-10-07T20:45:39.221Z,15.10
2018-10-07T20:48:07.866Z,14.20
2018-10-07T20:50:36.425Z,13.83
2018-10-07T20:53:04.796Z,14.87
2018-10-07T20:55:33.471Z,14.20
2018-10-07T20:58:01.773Z,15.00
2018-10-07T21:00:30.084Z,14.53
2018-10-07T21:02:58.535Z,14.15
2018-10-07T21:05:27.120Z,14.53
2018-10-07T21:07:55.375Z,14.23
2018-10-07T21:10:23.491Z,14.55
2018-10-07T21:12:51.416Z,15.25
2018-10-07T21:15:19.594Z,14.95
2018-10-07T21:17:47.660Z,14.80
2018-10-07T21:20:16.119Z,15.45
2018-10-07T21:22:44.155Z,16.77
2018-10-07T21:25:13.428Z,16.55
2018-10-07T21:27:41.901Z,15.28
2018-10-07T21:31:34.757Z,15.45
2018-10-07T21:34:03.329Z,15.43
2018-10-07T21:36:31.473Z,16.05
2018-10-07T21:38:59.816Z,14.10
2018-10-07T21:41:27.857Z,13.53
2018-10-07T21:43:56.356Z,14.38
2018-10-07T21:46:25.121Z,14.85
2018-10-07T21:48:53.675Z,15.40
2018-10-07T21:51:21.981Z,14.20
2018-10-07T21:53:50.335Z,15.18
2018-10-07T21:56:18.863Z,14.45
2018-10-07T21:58:47.565Z,13.10
2018-10-07T22:01:16.225Z,14.10
2018-10-07T22:03:44.892Z,14.40
2018-10-07T22:06:13.662Z,13.90
2018-10-07T22:08:42.282Z,15.30
2018-10-07T22:11:11.016Z,14.85
2018-10-07T22:13:39.639Z,14.23
2018-10-07T22:16:08.121Z,15.05
2018-10-07T22:18:36.695Z,16.37
2018-10-07T22:21:05.275Z,17.57
2018-10-07T22:23:33.671Z,17.60
2018-10-07T22:26:02.066Z,16.25
2018-10-07T22:28:31.711Z,16.90
2018-10-07T22:31:00.056Z,16.90
2018-10-07T22:33:28.523Z,15.45
2018-10-07T22:35:57.232Z,16.90
2018-10-07T22:38:27.248Z,16.32
2018-10-07T22:40:55.707Z,17.05
2018-10-07T22:43:24.066Z,18.45
2018-10-07T22:45:52.483Z,17.67
2018-10-07T22:48:20.940Z,19.30
2018-10-07T22:50:49.963Z,21.48
2018-10-07T22:53:18.623Z,22.13
2018-10-07T22:55:47.191Z,20.50
2018-10-07T22:58:15.884Z,20.55
2018-10-07T23:00:44.824Z,20.62
2018-10-07T23:03:13.661Z,20.72
2018-10-07T23:05:42.287Z,20.05
2018-10-07T23:08:10.592Z,20.80
2018-10-07T23:10:39.088Z,21.00
2018-10-07T23:13:07.404Z,18.60
2018-10-07T23:15:35.848Z,19.55
2018-10-07T23:18:04.310Z,21.10
2018-10-07T23:20:33.757Z,19.40
2018-10-07T23:23:02.223Z,20.23
2018-10-07T23:25:30.804Z,19.90
2018-10-07T23:27:59.298Z,21.00
2018-10-07T23:30:27.980Z,21.02
2018-10-07T23:32:56.655Z,21.45
2018-10-07T23:35:25.306Z,21.15
2018-10-07T23:37:53.665Z,20.30
2018-10-07T23:40:22.196Z,20.50
2018-10-07T23:42:51.100Z,19.20
2018-10-07T23:45:19.859Z,17.70
2018-10-07T23:47:48.459Z,20.05
2018-10-07T23:50:17.752Z,19.27
2018-10-07T23:52:48.161Z,17.95
2018-10-07T23:55:16.570Z,18.62
2018-10-07T23:57:45.060Z,19.80
